Time;durP1;ratioP1;P1;durP2;ratioP2;P2;SDS_P1;SDS_P2;PMS_P1;PMS_P2;Temp;Humidity;BMP_temperature;BMP_pressure;BME280_temperature;BME280_humidity;BME280_pressure;Samples;Min_cycle;Max_cycle;Signal;HPM_P1;HPM_P2
2022/04/19 00:00:21;;;;;;;5.17;4.20;;;;;;;3.78;100.00;94234.06;4991654;28;20207;-86
2022/04/19 00:02:49;;;;;;;5.50;4.70;;;;;;;3.84;100.00;94228.16;4991939;28;20196;-85
2022/04/19 00:05:15;;;;;;;6.53;4.60;;;;;;;3.87;100.00;94240.63;4991202;28;20683;-84
2022/04/19 00:07:44;;;;;;;6.53;4.77;;;;;;;3.80;100.00;94232.91;4991102;28;20188;-83
2022/04/19 00:10:12;;;;;;;6.00;4.50;;;;;;;3.86;100.00;94232.16;4991259;28;20193;-83
2022/04/19 00:12:39;;;;;;;5.53;4.37;;;;;;;3.87;100.00;94236.28;4991399;28;20192;-83
2022/04/19 00:15:07;;;;;;;5.60;4.53;;;;;;;3.93;100.00;94229.59;4988883;28;20279;-84
2022/04/19 00:17:34;;;;;;;6.37;4.10;;;;;;;3.89;100.00;94220.69;4992009;28;20228;-83
2022/04/19 00:20:01;;;;;;;5.13;4.43;;;;;;;3.84;100.00;94221.25;4991769;28;20208;-84
2022/04/19 00:22:29;;;;;;;5.57;4.40;;;;;;;3.83;100.00;94219.69;4990796;28;20267;-85
2022/04/19 00:24:56;;;;;;;6.20;4.97;;;;;;;3.70;100.00;94195.66;4991031;28;20227;-86
2022/04/19 00:27:24;;;;;;;5.83;4.53;;;;;;;3.74;100.00;94196.88;4991311;28;20188;-86
2022/04/19 00:29:53;;;;;;;4.87;4.20;;;;;;;3.84;100.00;94213.53;4990890;28;20290;-86
2022/04/19 00:32:20;;;;;;;5.93;4.97;;;;;;;3.87;100.00;94214.94;4990641;28;20207;-81
2022/04/19 00:34:47;;;;;;;5.83;5.03;;;;;;;3.81;100.00;94201.06;4987975;28;20200;-81
2022/04/19 00:37:14;;;;;;;6.13;5.07;;;;;;;3.82;100.00;94197.53;4990739;28;20691;-81
2022/04/19 00:39:41;;;;;;;6.20;5.27;;;;;;;3.87;100.00;94204.66;4982292;28;20228;-83
2022/04/19 00:42:08;;;;;;;6.07;4.80;;;;;;;3.85;100.00;94207.44;4981887;28;20585;-84
2022/04/19 00:44:39;;;;;;;7.13;4.57;;;;;;;3.80;100.00;94206.41;4996791;28;20226;-84
2022/04/19 00:47:07;;;;;;;5.87;4.50;;;;;;;3.80;100.00;94196.13;4993335;28;20185;-85
2022/04/19 00:49:35;;;;;;;5.30;4.53;;;;;;;3.80;100.00;94198.69;4980870;28;20196;-84
2022/04/19 00:52:03;;;;;;;5.97;4.37;;;;;;;3.88;100.00;94207.06;4979312;28;20201;-84
2022/04/19 00:54:30;;;;;;;5.03;4.00;;;;;;;3.91;100.00;94204.09;4980410;28;20196;-83
2022/04/19 00:56:57;;;;;;;6.60;4.50;;;;;;;3.92;100.00;94194.63;4979863;28;20219;-83
2022/04/19 00:59:25;;;;;;;4.97;4.37;;;;;;;3.82;100.00;94192.38;4981142;28;20200;-83
2022/04/19 01:01:53;;;;;;;4.57;3.97;;;;;;;3.78;100.00;94190.38;4980093;28;20288;-83
2022/04/19 01:04:20;;;;;;;4.73;4.00;;;;;;;3.82;100.00;94196.72;4979275;28;20188;-82
2022/04/19 01:06:47;;;;;;;4.70;3.90;;;;;;;3.89;100.00;94184.72;4984162;28;20196;-84
2022/04/19 01:09:14;;;;;;;5.17;4.07;;;;;;;3.98;100.00;94199.03;4980160;28;20234;-84
2022/04/19 01:14:27;;;;;;;4.93;4.00;;;;;;;3.89;100.00;94185.53;4984359;28;20202;-85
2022/04/19 01:16:56;;;;;;;4.47;4.03;;;;;;;3.72;100.00;94163.66;4981630;28;20216;-85
2022/04/19 01:19:23;;;;;;;4.87;3.93;;;;;;;3.94;100.00;94193.44;4979730;28;20228;-84
2022/04/19 01:21:57;;;;;;;6.03;4.33;;;;;;;3.90;100.00;94183.72;4986950;28;20207;-84
2022/04/19 01:24:29;;;;;;;4.80;4.10;;;;;;;3.90;100.00;94194.00;4981977;28;20276;-84
2022/04/19 01:26:57;;;;;;;5.20;4.30;;;;;;;3.93;100.00;94185.91;4986535;28;20644;-83
2022/04/19 01:29:25;;;;;;;5.37;4.70;;;;;;;3.94;100.00;94187.50;4979392;28;20203;-83
2022/04/19 01:31:53;;;;;;;6.33;4.53;;;;;;;3.90;100.00;94187.09;4980391;28;20192;-84
2022/04/19 01:34:20;;;;;;;6.03;4.97;;;;;;;3.87;100.00;94176.38;4980728;28;20625;-85
2022/04/19 01:36:47;;;;;;;6.73;5.20;;;;;;;3.90;100.00;94181.94;4983975;28;20303;-84
2022/04/19 01:39:16;;;;;;;7.33;5.43;;;;;;;3.85;100.00;94178.34;4980104;28;20232;-85
2022/04/19 01:41:42;;;;;;;7.10;5.20;;;;;;;3.86;100.00;94178.19;4976804;28;20199;-85
2022/04/19 01:44:09;;;;;;;6.13;4.97;;;;;;;3.86;100.00;94174.81;4984448;28;20201;-84
2022/04/19 01:46:36;;;;;;;5.60;4.47;;;;;;;3.77;100.00;94181.88;4982398;28;20194;-85
2022/04/19 01:49:04;;;;;;;6.70;4.67;;;;;;;3.88;100.00;94181.34;4979709;28;20271;-85
2022/04/19 01:51:31;;;;;;;5.93;4.63;;;;;;;3.87;100.00;94181.53;4979107;28;20196;-88
2022/04/19 01:53:58;;;;;;;5.73;4.50;;;;;;;3.69;100.00;94166.63;4981663;28;20209;-88
2022/04/19 01:56:26;;;;;;;5.23;4.40;;;;;;;3.75;100.00;94167.63;4986523;28;20211;-84
2022/04/19 01:58:53;;;;;;;5.83;4.30;;;;;;;3.80;100.00;94185.84;4980123;28;20212;-84
2022/04/19 02:01:20;;;;;;;4.97;3.97;;;;;;;3.78;100.00;94183.44;4980029;28;20188;-84
2022/04/19 02:03:46;;;;;;;4.87;4.17;;;;;;;3.81;100.00;94179.75;4990020;28;20205;-85
2022/04/19 02:06:14;;;;;;;5.00;4.03;;;;;;;3.73;100.00;94182.44;4980650;28;20555;-84
2022/04/19 02:08:41;;;;;;;7.03;4.70;;;;;;;3.64;100.00;94152.72;4981433;28;20240;-86
2022/04/19 02:11:08;;;;;;;7.57;5.17;;;;;;;3.80;100.00;94181.50;4982246;28;20215;-85
2022/04/19 02:13:36;;;;;;;5.83;4.60;;;;;;;3.84;100.00;94174.19;4979870;28;20584;-85
2022/04/19 02:16:03;;;;;;;6.33;4.40;;;;;;;3.79;100.00;94176.53;4984461;28;20207;-85
2022/04/19 02:18:30;;;;;;;6.33;4.80;;;;;;;3.79;100.00;94179.09;4983098;28;20224;-83
2022/04/19 02:21:00;;;;;;;5.90;4.70;;;;;;;3.76;100.00;94176.91;4982598;28;20680;-84
2022/04/19 02:23:28;;;;;;;6.87;5.10;;;;;;;3.72;100.00;94186.75;4988466;28;20217;-88
2022/04/19 02:25:56;;;;;;;6.13;4.93;;;;;;;3.74;100.00;94184.81;4983286;28;20197;-88
2022/04/19 02:28:23;;;;;;;7.03;5.10;;;;;;;3.73;100.00;94182.44;4983291;28;20251;-88
2022/04/19 02:30:52;;;;;;;6.90;4.97;;;;;;;3.69;100.00;94181.22;4983308;28;20196;-85
2022/04/19 02:33:19;;;;;;;6.67;5.03;;;;;;;3.76;100.00;94179.47;4982916;28;20201;-85
2022/04/19 02:35:46;;;;;;;6.20;4.90;;;;;;;3.73;100.00;94179.84;4984584;28;20199;-85
2022/04/19 02:38:13;;;;;;;6.30;4.50;;;;;;;3.70;100.00;94177.66;4983134;28;20220;-83
2022/04/19 02:40:40;;;;;;;5.43;4.40;;;;;;;3.74;100.00;94182.25;4982470;28;20713;-83
2022/04/19 02:43:07;;;;;;;5.60;4.93;;;;;;;3.77;100.00;94186.22;4982917;28;20196;-83
2022/04/19 02:45:34;;;;;;;6.77;4.90;;;;;;;3.80;100.00;94186.66;4985733;28;20562;-83
2022/04/19 02:48:05;;;;;;;6.43;4.87;;;;;;;3.76;100.00;94179.47;4988684;28;20199;-84
2022/04/19 02:50:33;;;;;;;5.93;5.07;;;;;;;3.79;100.00;94182.47;4983827;28;20226;-83
2022/04/19 02:53:00;;;;;;;7.17;4.70;;;;;;;3.75;100.00;94180.47;4982683;28;20200;-83
2022/04/19 02:55:28;;;;;;;6.27;5.07;;;;;;;3.65;100.00;94185.94;4992052;28;20682;-83
2022/04/19 02:57:55;;;;;;;5.80;4.73;;;;;;;3.61;100.00;94184.72;4983086;28;20251;-85
2022/04/19 03:00:22;;;;;;;6.30;5.37;;;;;;;3.52;100.00;94169.66;4983941;28;20192;-85
2022/04/19 03:02:49;;;;;;;6.67;5.50;;;;;;;3.69;100.00;94196.66;4984620;28;20540;-84
2022/04/19 03:05:18;;;;;;;6.23;5.40;;;;;;;3.71;100.00;94195.47;4983965;28;20687;-84
2022/04/19 03:07:46;;;;;;;5.43;4.60;;;;;;;3.63;100.00;94195.63;4983857;28;20668;-84
2022/04/19 03:10:13;;;;;;;5.93;4.60;;;;;;;3.70;100.00;94203.34;4982216;28;20205;-85
2022/04/19 03:12:41;;;;;;;5.80;5.03;;;;;;;3.70;100.00;94201.59;4981681;28;20229;-85
2022/04/19 03:15:08;;;;;;;6.50;5.40;;;;;;;3.70;100.00;94205.94;4991807;28;20196;-84
2022/04/19 03:17:35;;;;;;;7.33;5.93;;;;;;;3.70;100.00;94206.72;4983167;28;20281;-85
2022/04/19 03:20:03;;;;;;;6.43;5.20;;;;;;;3.68;100.00;94192.47;4981574;28;20284;-84
2022/04/19 03:27:41;;;;;;;5.73;4.50;;;;;;;3.76;100.00;94213.69;4983631;28;20188;-85
2022/04/19 03:28:02;;;;;;;4.80;4.30;;;;;;;3.77;100.00;94224.75;4986085;28;20332;-85
2022/04/19 03:30:29;;;;;;;5.97;4.67;;;;;;;3.70;100.00;94206.72;4983568;28;20272;-86
2022/04/19 03:32:56;;;;;;;6.40;4.97;;;;;;;3.73;100.00;94213.25;4982674;28;20196;-86
2022/04/19 03:35:23;;;;;;;5.83;4.60;;;;;;;3.69;100.00;94212.06;4976456;28;20680;-86
2022/04/19 03:37:51;;;;;;;5.90;5.00;;;;;;;3.79;100.00;94220.22;4982406;28;20213;-86
2022/04/19 03:40:18;;;;;;;8.17;6.27;;;;;;;3.67;100.00;94201.16;4991447;28;20183;-85
2022/04/19 03:42:45;;;;;;;7.50;5.87;;;;;;;3.89;100.00;94226.66;4983795;28;20196;-86
2022/04/19 03:45:12;;;;;;;6.93;5.40;;;;;;;3.67;100.00;94191.69;4990525;28;20207;-86
2022/04/19 03:47:40;;;;;;;8.20;6.33;;;;;;;3.89;100.00;94226.66;4981330;28;20198;-86
2022/04/19 03:50:08;;;;;;;13.20;9.07;;;;;;;3.85;100.00;94230.56;4981684;28;20302;-84
2022/04/19 03:52:36;;;;;;;10.70;6.83;;;;;;;3.83;100.00;94222.25;4981628;28;20199;-88
2022/04/19 03:55:05;;;;;;;8.33;6.10;;;;;;;3.74;100.00;94212.28;4984781;28;20207;-87
2022/04/19 03:57:34;;;;;;;7.53;5.90;;;;;;;3.73;100.00;94226.91;4984999;28;20654;-88
2022/04/19 04:00:01;;;;;;;8.53;5.43;;;;;;;3.77;100.00;94224.75;4980251;28;20676;-84
2022/04/19 04:02:28;;;;;;;8.20;6.43;;;;;;;3.86;100.00;94241.63;4985731;28;20204;-83
2022/04/19 04:04:54;;;;;;;7.80;6.10;;;;;;;3.80;100.00;94232.09;4982889;28;20197;-85
2022/04/19 04:07:21;;;;;;;7.13;5.70;;;;;;;3.91;100.00;94247.00;4987008;28;20196;-85
2022/04/19 04:09:49;;;;;;;8.03;6.40;;;;;;;3.88;100.00;94244.81;4986775;28;20208;-85
2022/04/19 04:12:17;;;;;;;8.90;6.33;;;;;;;3.82;100.00;94218.06;4986046;28;20208;-86
2022/04/19 04:14:44;;;;;;;8.40;6.33;;;;;;;3.96;100.00;94247.22;4997899;28;20241;-85
2022/04/19 04:17:11;;;;;;;8.23;6.60;;;;;;;3.97;100.00;94248.81;5006528;28;20204;-86
2022/04/19 04:19:38;;;;;;;9.40;6.97;;;;;;;3.87;100.00;94233.72;4985879;28;20659;-87
2022/04/19 04:22:06;;;;;;;9.17;6.97;;;;;;;3.99;100.00;94249.41;4984584;28;20200;-86
2022/04/19 04:24:33;;;;;;;11.37;8.53;;;;;;;3.87;100.00;94238.06;4984355;28;20193;-88
2022/04/19 04:27:00;;;;;;;15.23;9.00;;;;;;;3.93;100.00;94250.16;4976551;28;20197;-87
2022/04/19 04:29:28;;;;;;;14.27;9.77;;;;;;;4.04;100.00;94254.78;4984686;28;20193;-89
2022/04/19 04:31:55;;;;;;;18.37;12.03;;;;;;;3.96;100.00;94257.50;4980988;28;20280;-74
2022/04/19 04:34:22;;;;;;;22.37;13.50;;;;;;;3.45;100.00;94256.91;4976941;28;20207;-74
2022/04/19 04:36:49;;;;;;;21.90;14.20;;;;;;;3.10;100.00;94258.56;4981003;28;20734;-75
2022/04/19 04:39:17;;;;;;;19.43;12.70;;;;;;;2.91;100.00;94248.88;4990360;28;20318;-76
2022/04/19 04:41:45;;;;;;;20.77;13.13;;;;;;;2.96;100.00;94261.16;4990802;28;20283;-74
2022/04/19 04:44:12;;;;;;;28.37;17.27;;;;;;;2.96;100.00;94258.59;4991384;28;20216;-74
2022/04/19 04:49:40;;;;;;;19.03;12.17;;;;;;;2.85;100.00;94257.31;4991462;28;20255;-73
2022/04/19 04:52:09;;;;;;;18.77;11.40;;;;;;;2.84;100.00;94264.19;4991099;28;20188;-75
2022/04/19 04:54:37;;;;;;;19.13;11.17;;;;;;;2.78;100.00;94266.69;4991025;28;20617;-73
2022/04/19 04:57:05;;;;;;;16.70;9.77;;;;;;;2.82;100.00;94266.16;4991311;28;20204;-72
2022/04/19 04:59:32;;;;;;;19.93;11.23;;;;;;;2.65;100.00;94259.66;4990939;28;20203;-74
2022/04/19 05:02:01;;;;;;;18.30;11.07;;;;;;;2.56;100.00;94265.84;4991341;28;20207;-73
2022/04/19 05:04:28;;;;;;;18.97;10.57;;;;;;;2.37;100.00;94271.50;4991476;28;20215;-73
2022/04/19 05:06:58;;;;;;;15.90;9.80;;;;;;;2.40;100.00;94268.59;4991013;28;20196;-73
2022/04/19 05:09:29;;;;;;;17.23;9.97;;;;;;;2.32;100.00;94270.44;4991318;28;20204;-74
2022/04/19 05:11:56;;;;;;;18.57;10.80;;;;;;;2.38;100.00;94267.97;4990411;28;20239;-73
2022/04/19 05:14:25;;;;;;;20.87;11.03;;;;;;;2.51;100.00;94269.91;4994148;28;20235;-74
2022/04/19 05:16:52;;;;;;;16.77;10.50;;;;;;;2.71;100.00;94269.16;4989836;28;20642;-74
2022/04/19 05:19:21;;;;;;;18.27;10.97;;;;;;;2.73;100.00;94271.56;4990647;28;20223;-72
2022/04/19 05:21:48;;;;;;;22.13;12.33;;;;;;;2.79;100.00;94265.72;4989926;28;20237;-72
2022/04/19 05:24:15;;;;;;;16.30;10.70;;;;;;;2.86;100.00;94269.13;4990797;28;20192;-74
2022/04/19 05:26:42;;;;;;;21.20;12.00;;;;;;;2.90;100.00;94279.84;4990700;28;20211;-74
2022/04/19 05:29:09;;;;;;;19.67;12.00;;;;;;;3.01;100.00;94277.59;4990870;28;20196;-74
2022/04/19 05:31:36;;;;;;;18.73;10.60;;;;;;;3.03;100.00;94275.63;4992569;28;20196;-72
2022/04/19 05:34:03;;;;;;;16.27;10.57;;;;;;;3.16;100.00;94278.34;4992428;28;20207;-72
2022/04/19 05:36:32;;;;;;;15.20;8.93;;;;;;;3.21;100.00;94282.94;4990061;28;20212;-72
2022/04/19 05:39:00;;;;;;;11.83;8.30;;;;;;;3.08;100.00;94282.81;4989927;28;20341;-74
2022/04/19 05:41:27;;;;;;;17.13;9.23;;;;;;;3.00;100.00;94273.44;4990550;28;20207;-73
2022/04/19 05:43:55;;;;;;;13.43;8.87;;;;;;;2.98;100.00;94277.16;5005656;28;20195;-74
2022/04/19 05:46:22;;;;;;;17.20;9.57;;;;;;;3.04;100.00;94281.56;4990295;28;20204;-74
2022/04/19 05:48:50;;;;;;;18.77;10.73;;;;;;;3.03;100.00;94293.59;5004161;28;20191;-74
2022/04/19 05:51:16;;;;;;;25.80;14.20;;;;;;;3.12;100.00;94291.72;5008000;28;20321;-74
2022/04/19 05:53:45;;;;;;;26.70;15.60;;;;;;;3.06;100.00;94290.69;4993448;28;20290;-74
2022/04/19 05:56:12;;;;;;;28.10;16.97;;;;;;;2.99;100.00;94289.03;4994890;28;20224;-74
2022/04/19 05:58:39;;;;;;;39.47;22.27;;;;;;;2.82;100.00;94278.97;4994068;28;20216;-73
2022/04/19 06:01:06;;;;;;;34.23;19.63;;;;;;;2.92;100.00;94291.50;5002218;28;20191;-82
2022/04/19 06:06:18;;;;;;;33.23;19.33;;;;;;;3.00;100.00;94296.53;5001990;28;20211;-79
2022/04/19 06:08:46;;;;;;;36.03;20.10;;;;;;;3.14;100.00;94297.50;5002048;28;20235;-80
2022/04/19 06:11:13;;;;;;;22.07;14.10;;;;;;;3.23;100.00;94296.41;5003204;28;20188;-81
2022/04/19 06:13:40;;;;;;;20.37;12.43;;;;;;;3.31;100.00;94302.22;5001335;28;20212;-82
2022/04/19 06:16:07;;;;;;;17.67;11.90;;;;;;;3.22;100.00;94303.31;4997482;28;20754;-82
2022/04/19 06:18:34;;;;;;;18.73;12.60;;;;;;;3.16;100.00;94300.66;5003124;28;20212;-79
2022/04/19 06:21:03;;;;;;;19.80;11.57;;;;;;;3.22;100.00;94299.94;4999026;28;20202;-74
2022/04/19 06:23:30;;;;;;;12.90;9.43;;;;;;;3.36;100.00;94310.16;4997437;28;20188;-80
2022/04/19 06:25:58;;;;;;;10.53;6.97;;;;;;;3.53;100.00;94303.00;5000553;28;20204;-82
2022/04/19 06:28:25;;;;;;;15.03;8.10;;;;;;;3.70;100.00;94308.69;5001211;28;20247;-80
2022/04/19 06:30:52;;;;;;;13.03;8.47;;;;;;;3.62;100.00;94312.19;5004225;28;20335;-81
2022/04/19 06:33:18;;;;;;;8.63;6.23;;;;;;;3.47;100.00;94311.44;5001732;28;20199;-87
2022/04/19 06:35:46;;;;;;;11.90;7.30;;;;;;;3.43;100.00;94312.81;5002340;28;20571;-80
2022/04/19 06:38:13;;;;;;;10.60;6.97;;;;;;;3.46;100.00;94316.78;4998456;28;20216;-80
2022/04/19 06:40:40;;;;;;;9.83;6.53;;;;;;;3.62;100.00;94304.47;4984105;28;20218;-80
2022/04/19 06:43:09;;;;;;;8.73;5.77;;;;;;;3.92;100.00;94313.66;4974874;28;20193;-78
2022/04/19 06:45:36;;;;;;;5.33;3.70;;;;;;;4.10;100.00;94320.88;4981437;28;20279;-79
2022/04/19 06:48:05;;;;;;;4.53;3.60;;;;;;;4.19;100.00;94317.19;4980739;28;20201;-80
2022/04/19 06:50:33;;;;;;;5.37;3.60;;;;;;;4.40;100.00;94321.50;4980254;28;20298;-80
2022/04/19 06:52:59;;;;;;;5.23;3.90;;;;;;;4.53;100.00;94319.78;4983066;28;20213;-80
2022/04/19 06:55:26;;;;;;;4.60;3.60;;;;;;;4.62;100.00;94325.56;4984257;28;20208;-78
2022/04/19 06:57:53;;;;;;;4.30;3.47;;;;;;;4.72;100.00;94332.97;4983037;28;20194;-79
2022/04/19 07:00:21;;;;;;;6.07;4.60;;;;;;;4.70;100.00;94328.03;4986109;28;20196;-79
2022/04/19 07:02:48;;;;;;;11.30;7.80;;;;;;;4.52;100.00;94331.09;4982393;28;20294;-80
2022/04/19 07:05:16;;;;;;;10.37;7.13;;;;;;;4.30;100.00;94333.91;4981898;28;20208;-81
2022/04/19 07:07:43;;;;;;;11.87;7.10;;;;;;;4.01;100.00;94329.75;4984430;28;20201;-79
2022/04/19 07:10:11;;;;;;;9.67;6.60;;;;;;;3.78;100.00;94331.72;4981654;28;20193;-73
2022/04/19 07:12:39;;;;;;;10.17;6.50;;;;;;;3.87;100.00;94336.53;4983011;28;20247;-76
2022/04/19 07:15:07;;;;;;;8.83;6.43;;;;;;;3.82;100.00;94330.34;4985051;28;20193;-78
2022/04/19 07:17:39;;;;;;;10.93;8.00;;;;;;;3.83;100.00;94334.53;5001910;23;20317;-86
2022/04/19 07:28:19;;;;;;;9.07;6.40;;;;;;;4.03;100.00;94342.38;5030805;28;20237;-80
2022/04/19 07:30:47;;;;;;;9.93;6.40;;;;;;;4.27;100.00;94339.44;5031514;28;20195;-80
2022/04/19 07:33:16;;;;;;;8.43;6.00;;;;;;;4.28;100.00;94346.94;5031054;28;20247;-81
2022/04/19 07:35:43;;;;;;;10.30;6.47;;;;;;;4.51;100.00;94349.25;5025840;28;20207;-79
2022/04/19 07:38:10;;;;;;;7.83;5.50;;;;;;;4.77;100.00;94348.63;5021616;28;20677;-81
2022/04/19 07:40:37;;;;;;;6.87;4.87;;;;;;;4.94;100.00;94345.56;5028657;28;20201;-80
2022/04/19 07:43:04;;;;;;;11.90;6.57;;;;;;;5.14;100.00;94351.59;5022665;28;20189;-79
2022/04/19 07:45:31;;;;;;;8.00;5.63;;;;;;;4.99;100.00;94355.28;5021609;28;20290;-74
2022/04/19 07:47:57;;;;;;;7.47;5.43;;;;;;;4.94;100.00;94350.69;5022749;28;20198;-82
2022/04/19 07:50:34;;;;;;;7.47;5.03;;;;;;;4.96;100.00;94342.81;5021246;28;20569;-82
2022/04/19 07:53:08;;;;;;;6.30;4.50;;;;;;;5.09;100.00;94348.00;5026232;28;20243;-82
2022/04/19 07:55:35;;;;;;;5.27;3.37;;;;;;;5.25;100.00;94357.19;5031365;28;20187;-84
2022/04/19 07:58:02;;;;;;;6.10;3.63;;;;;;;5.31;100.00;94357.19;5030648;28;20188;-83
2022/04/19 08:00:29;;;;;;;6.37;4.63;;;;;;;5.47;100.00;94343.19;5031306;28;20193;-83
2022/04/19 08:02:56;;;;;;;7.50;5.70;;;;;;;5.68;100.00;94355.94;5030477;28;20255;-80
2022/04/19 08:05:23;;;;;;;8.93;5.97;;;;;;;5.77;100.00;94346.22;5030605;28;20667;-80
2022/04/19 08:07:51;;;;;;;8.40;6.03;;;;;;;5.74;100.00;94347.41;5024448;28;20702;-83
2022/04/19 08:10:22;;;;;;;5.13;3.67;;;;;;;5.92;97.69;94370.06;5030488;28;20187;-81
2022/04/19 08:12:49;;;;;;;6.47;4.63;;;;;;;5.95;97.69;94364.50;5030313;28;20195;-77
2022/04/19 08:15:16;;;;;;;5.13;4.27;;;;;;;6.01;98.15;94363.72;5027425;28;20754;-77
2022/04/19 08:17:43;;;;;;;4.00;3.60;;;;;;;5.93;94.21;94364.72;5030406;28;20197;-76
2022/04/19 08:20:13;;;;;;;7.97;5.10;;;;;;;6.00;94.96;94362.94;5028969;28;20706;-77
2022/04/19 08:22:40;;;;;;;11.23;7.93;;;;;;;6.12;94.79;94361.34;5027397;28;20201;-76
2022/04/19 08:25:10;;;;;;;6.70;4.83;;;;;;;6.10;94.52;94354.81;5030769;28;20198;-88
2022/04/19 08:27:40;;;;;;;7.23;5.43;;;;;;;5.97;92.89;94341.94;5032054;28;20205;-81
2022/04/19 08:30:09;;;;;;;8.10;6.00;;;;;;;6.06;94.71;94356.22;5030733;28;20193;-80
2022/04/19 08:32:36;;;;;;;6.70;5.20;;;;;;;6.06;98.66;94335.59;5021251;28;20229;-80
2022/04/19 08:35:03;;;;;;;6.07;4.80;;;;;;;6.27;96.72;94351.66;5022412;28;20191;-82
2022/04/19 08:37:31;;;;;;;7.60;5.00;;;;;;;6.26;93.45;94355.22;5030165;28;20606;-80
2022/04/19 08:39:59;;;;;;;6.03;4.97;;;;;;;6.44;89.40;94357.19;5030137;28;20302;-86
2022/04/19 08:42:29;;;;;;;9.03;6.83;;;;;;;6.40;89.90;94337.97;5012961;28;20561;-79
2022/04/19 08:44:56;;;;;;;12.77;8.17;;;;;;;6.44;90.96;94352.03;5027505;28;20288;-80
2022/04/19 08:47:24;;;;;;;8.97;6.23;;;;;;;6.46;89.93;94352.66;5028928;28;20263;-77
2022/04/19 08:49:56;;;;;;;12.37;6.20;;;;;;;6.62;89.90;94339.31;5029625;28;20208;-89
2022/04/19 08:52:23;;;;;;;7.77;6.10;;;;;;;6.85;90.87;94341.44;5029574;28;20212;-77
2022/04/19 08:57:41;;;;;;;11.33;6.10;;;;;;;7.13;90.66;94349.69;4987917;28;20568;-77
2022/04/19 09:00:09;;;;;;;8.47;6.27;;;;;;;7.19;91.16;94343.72;5020741;28;20215;-73
2022/04/19 09:02:37;;;;;;;8.93;5.80;;;;;;;7.29;87.24;94351.84;5018172;28;20631;-74
2022/04/19 09:05:16;;;;;;;10.53;5.97;;;;;;;7.37;87.17;94346.44;5020824;28;20272;-89
2022/04/19 09:07:44;;;;;;;7.97;5.73;;;;;;;7.52;89.17;94348.75;5031826;28;20218;-86
2022/04/19 09:10:14;;;;;;;7.57;5.70;;;;;;;7.42;89.59;94336.25;5031461;28;20695;-79
2022/04/19 09:12:59;;;;;;;6.77;5.67;;;;;;;7.55;89.02;94347.53;5030017;28;20195;-82
2022/04/19 09:15:33;;;;;;;6.17;5.23;;;;;;;7.48;87.24;94345.00;5026645;28;20203;-80
2022/04/19 09:18:00;;;;;;;6.00;4.87;;;;;;;7.58;86.20;94345.34;5024680;28;20198;-79
2022/04/19 09:20:27;;;;;;;7.43;5.23;;;;;;;7.55;81.48;94348.34;5026163;28;20219;-74
2022/04/19 09:23:03;;;;;;;5.57;4.90;;;;;;;7.47;80.96;94352.97;5019878;28;20194;-76
2022/04/19 09:25:30;;;;;;;6.33;5.17;;;;;;;7.51;80.28;94349.75;5022298;28;20199;-82
2022/04/19 09:27:59;;;;;;;7.27;5.30;;;;;;;7.67;80.66;94341.53;5026975;28;20693;-81
2022/04/19 09:30:28;;;;;;;5.70;5.00;;;;;;;7.95;77.68;94352.28;5029523;28;20428;-82
2022/04/19 09:33:04;;;;;;;6.43;5.00;;;;;;;7.95;78.90;94346.31;5029098;28;20198;-75
2022/04/19 09:35:32;;;;;;;8.57;5.83;;;;;;;7.84;76.79;94345.19;5023072;28;20194;-76
2022/04/19 09:37:59;;;;;;;5.83;4.77;;;;;;;7.75;77.67;94338.69;5026284;28;20199;-75
2022/04/19 09:40:34;;;;;;;8.87;6.27;;;;;;;7.80;78.54;94344.03;5028373;28;20226;-75
2022/04/19 09:43:10;;;;;;;10.43;6.67;;;;;;;7.77;81.99;94339.25;5026962;28;20186;-76
2022/04/19 09:45:54;;;;;;;8.13;5.63;;;;;;;8.20;83.35;94329.00;5026266;28;20195;-84
2022/04/19 09:48:22;;;;;;;12.33;5.57;;;;;;;8.60;80.60;94328.72;5027250;28;20278;-81
2022/04/19 09:50:51;;;;;;;8.63;5.67;;;;;;;9.00;80.76;94335.09;5028837;28;20846;-81
2022/04/19 09:53:19;;;;;;;6.83;5.37;;;;;;;9.32;78.93;94338.31;5026431;28;20197;-82
2022/04/19 09:55:50;;;;;;;9.67;5.23;;;;;;;9.32;70.14;94338.31;5030170;28;20198;-76
2022/04/19 09:58:20;;;;;;;6.27;5.33;;;;;;;9.06;71.08;94336.81;5027377;28;20179;-82
2022/04/19 10:00:48;;;;;;;5.70;4.60;;;;;;;9.05;68.69;94335.22;5029425;28;20221;-83
2022/04/19 10:08:59;;;;;;;7.60;4.80;;;;;;;9.78;67.97;94328.16;5028796;28;20191;-81
2022/04/19 10:11:26;;;;;;;7.80;4.90;;;;;;;10.23;65.29;94326.72;5028659;28;20615;-81
2022/04/19 10:13:55;;;;;;;8.47;4.73;;;;;;;10.65;62.92;94318.81;5028923;28;20205;-81
2022/04/19 10:16:23;;;;;;;8.53;4.97;;;;;;;10.72;61.33;94309.13;5028808;28;20256;-81
2022/04/19 10:18:50;;;;;;;7.00;4.43;;;;;;;10.57;59.84;94303.56;5029699;28;20206;-81
2022/04/19 10:21:20;;;;;;;4.97;4.00;;;;;;;10.55;61.72;94301.22;5023607;28;20234;-82
2022/04/19 10:23:47;;;;;;;8.03;3.60;;;;;;;10.61;62.52;94302.91;5019918;28;20197;-82
2022/04/19 10:26:20;;;;;;;4.20;3.30;;;;;;;10.63;59.03;94305.28;5020560;28;20199;-81
2022/04/19 10:28:49;;;;;;;3.87;3.37;;;;;;;10.31;53.70;94311.81;5020981;28;20200;-81
2022/04/19 10:31:27;;;;;;;5.13;3.90;;;;;;;10.34;54.08;94300.97;5017447;28;20191;-81
2022/04/19 10:33:54;;;;;;;4.00;3.43;;;;;;;10.42;53.84;94293.63;5018966;28;20180;-80
2022/04/19 10:36:24;;;;;;;6.93;4.13;;;;;;;10.34;54.34;94301.75;5018218;28;20199;-80
2022/04/19 10:39:22;;;;;;;5.53;3.57;;;;;;;10.01;55.68;94294.47;5022585;28;20190;-80
2022/04/19 10:41:53;;;;;;;6.10;3.53;;;;;;;9.75;54.72;94274.09;5020759;28;20202;-82
2022/04/19 10:44:28;;;;;;;4.77;3.77;;;;;;;9.51;56.06;94286.19;5024820;28;20198;-80
2022/04/19 10:47:11;;;;;;;6.30;4.53;;;;;;;9.30;54.46;94299.63;5020674;28;20187;-80
2022/04/19 10:49:58;;;;;;;7.07;4.83;;;;;;;9.34;54.91;94300.78;5021278;28;20196;-80
2022/04/19 10:52:47;;;;;;;7.97;4.50;;;;;;;9.82;53.35;94300.72;5021484;28;21019;-81
2022/04/19 10:55:23;;;;;;;4.90;3.57;;;;;;;10.21;52.25;94296.78;5025650;28;20203;-82
2022/04/19 11:00:57;;;;;;;9.10;4.00;;;;;;;11.06;49.96;94284.88;5020608;28;20215;-80
2022/04/19 11:03:49;;;;;;;4.40;3.67;;;;;;;11.34;48.23;94286.75;5021517;28;20195;-83
2022/04/19 11:06:40;;;;;;;3.97;3.30;;;;;;;11.79;49.14;94279.00;5022657;28;20183;-82
2022/04/19 11:09:16;;;;;;;5.57;3.87;;;;;;;11.79;46.25;94282.41;5021531;28;20204;-80
2022/04/19 11:11:48;;;;;;;5.70;3.87;;;;;;;11.82;47.40;94275.91;5019090;28;20223;-80
2022/04/19 11:14:23;;;;;;;6.27;3.67;;;;;;;11.54;49.68;94271.50;5022918;28;20205;-82
2022/04/19 11:16:53;;;;;;;4.23;3.50;;;;;;;11.15;46.55;94285.31;5022138;28;20661;-81
2022/04/19 11:19:25;;;;;;;6.07;3.73;;;;;;;10.83;46.52;94280.50;5018047;28;20242;-81
2022/04/19 11:21:56;;;;;;;5.60;3.80;;;;;;;10.25;47.98;94283.13;5019341;28;20285;-81
2022/04/19 11:25:08;;;;;;;6.43;3.40;;;;;;;9.78;49.70;94272.88;5021006;28;20198;-79
2022/04/19 11:28:12;;;;;;;5.23;3.73;;;;;;;10.19;49.24;94272.84;5025576;28;20289;-80
2022/04/19 11:30:46;;;;;;;5.63;3.47;;;;;;;10.78;48.10;94264.03;5021520;28;20183;-80
2022/04/19 11:33:25;;;;;;;5.00;3.80;;;;;;;11.65;46.10;94260.25;5020734;28;20182;-81
2022/04/19 11:36:04;;;;;;;4.00;3.40;;;;;;;12.11;43.24;94267.03;5022837;28;20195;-82
2022/04/19 11:38:32;;;;;;;4.57;3.53;;;;;;;11.98;41.52;94258.75;5022824;28;20294;-80
2022/04/19 11:46:51;;;;;;;7.57;5.30;;;;;;;11.15;41.00;94280.09;5032639;28;20648;-80
2022/04/19 11:49:35;;;;;;;8.30;5.30;;;;;;;10.12;45.33;94267.75;5025110;28;20202;-81
2022/04/19 11:52:09;;;;;;;10.57;7.63;;;;;;;9.67;47.50;94272.59;5025185;28;20660;-79
2022/04/19 11:54:36;;;;;;;15.13;10.20;;;;;;;9.59;48.10;94272.13;5016919;28;20196;-81
2022/04/19 11:57:06;;;;;;;14.63;9.03;;;;;;;9.44;51.20;94269.13;5025960;28;20606;-81
2022/04/19 11:59:34;;;;;;;7.63;5.10;;;;;;;9.36;51.04;94278.03;5022714;28;20720;-81
2022/04/19 12:02:03;;;;;;;7.23;5.40;;;;;;;9.12;51.56;94276.31;5021585;28;20203;-72
2022/04/19 12:04:30;;;;;;;7.60;4.43;;;;;;;9.05;50.75;94263.47;5022065;28;20187;-80
2022/04/19 12:07:01;;;;;;;7.13;4.00;;;;;;;9.04;49.67;94287.78;5021627;28;20199;-81
2022/04/19 12:09:31;;;;;;;4.10;3.37;;;;;;;8.67;50.78;94288.78;5024061;28;20674;-82
2022/04/19 12:11:59;;;;;;;5.63;3.47;;;;;;;8.66;51.80;94289.78;5019141;28;20262;-82
2022/04/19 12:14:27;;;;;;;10.10;4.00;;;;;;;8.92;50.08;94279.16;5021018;28;20653;-82
2022/04/19 12:16:59;;;;;;;3.43;2.90;;;;;;;9.66;50.37;94259.88;5021532;28;20187;-81